createdAt,value
2022-09-24T00:01:17.630Z,89.27
2022-09-24T00:03:53.207Z,89.07
2022-09-24T00:06:26.927Z,88.69
2022-09-24T00:08:57.971Z,88.51
2022-09-24T00:11:28.806Z,88.43
2022-09-24T00:13:58.757Z,88.42
2022-09-24T00:16:30.635Z,88.08
2022-09-24T00:19:02.730Z,88.49
2022-09-24T00:21:34.469Z,89.06
2022-09-24T00:24:05.514Z,89.05
2022-09-24T00:26:50.659Z,88.86
2022-09-24T00:29:20.962Z,89.44
2022-09-24T00:31:50.227Z,89.38
2022-09-24T00:34:20.884Z,89.43
2022-09-24T00:36:49.048Z,89.46
2022-09-24T00:39:17.775Z,89.84
2022-09-24T00:41:47.314Z,89.39
2022-09-24T00:44:53.787Z,89.62
2022-09-24T00:47:30.653Z,89.81
2022-09-24T00:50:08.554Z,90.63
2022-09-24T00:52:41.937Z,90.97
2022-09-24T00:55:10.939Z,91.27
2022-09-24T00:57:41.027Z,91.66
2022-09-24T01:00:10.428Z,91.59
2022-09-24T01:02:43.396Z,91.62
2022-09-24T01:05:14.913Z,92.43
2022-09-24T01:07:43.071Z,92.84
2022-09-24T01:10:15.191Z,93.23
2022-09-24T01:12:50.627Z,93.53
2022-09-24T01:15:26.447Z,93.32
2022-09-24T01:18:02.314Z,93.71
2022-09-24T01:20:55.585Z,94.15
2022-09-24T01:23:52.948Z,95.22
2022-09-24T01:26:41.194Z,95.46
2022-09-24T01:29:42.057Z,95.75
2022-09-24T01:32:20.380Z,95.52
2022-09-24T01:34:53.537Z,95.89
2022-09-24T01:37:26.736Z,96.00
2022-09-24T01:39:58.016Z,96.35
2022-09-24T01:42:30.640Z,96.39
2022-09-24T01:45:02.442Z,97.73
2022-09-24T01:47:35.008Z,97.87
2022-09-24T01:50:06.000Z,98.37
2022-09-24T01:52:41.621Z,98.13
2022-09-24T01:55:14.282Z,98.50
2022-09-24T01:57:48.337Z,98.13
2022-09-24T02:00:20.320Z,97.90
2022-09-24T02:02:56.111Z,98.40
2022-09-24T02:05:43.022Z,98.75
2022-09-24T02:08:17.729Z,98.82
2022-09-24T02:10:52.239Z,98.79
2022-09-24T02:13:25.034Z,98.86
2022-09-24T02:16:00.707Z,98.59
2022-09-24T02:18:34.963Z,99.10
2022-09-24T02:21:05.378Z,99.91
2022-09-24T02:23:37.706Z,99.80
2022-09-24T02:26:06.811Z,99.52
2022-09-24T02:28:36.742Z,100.00
2022-09-24T02:31:09.346Z,100.00
2022-09-24T02:34:00.964Z,100.00
2022-09-24T02:36:29.783Z,100.00
2022-09-24T02:38:57.893Z,100.00
2022-09-24T02:41:27.098Z,100.00
2022-09-24T02:43:54.978Z,100.00
2022-09-24T02:46:24.567Z,100.00
2022-09-24T02:48:52.692Z,100.00
2022-09-24T02:51:21.711Z,100.00
2022-09-24T02:53:49.719Z,100.00
2022-09-24T02:56:17.751Z,100.00
2022-09-24T02:58:46.046Z,100.00
2022-09-24T03:01:14.699Z,100.00
2022-09-24T03:03:44.451Z,100.00
2022-09-24T03:06:14.067Z,100.00
2022-09-24T03:08:42.378Z,100.00
2022-09-24T03:11:15.094Z,100.00
2022-09-24T03:13:46.456Z,100.00
2022-09-24T03:16:14.611Z,100.00
2022-09-24T03:18:45.039Z,100.00
2022-09-24T03:21:14.579Z,100.00
2022-09-24T03:23:42.537Z,100.00
2022-09-24T03:26:12.916Z,100.00
2022-09-24T03:28:41.263Z,100.00
2022-09-24T03:31:08.916Z,100.00
2022-09-24T03:33:39.616Z,100.00
2022-09-24T03:36:12.227Z,100.00
2022-09-24T03:38:42.231Z,100.00
2022-09-24T03:41:11.839Z,100.00
2022-09-24T03:43:40.244Z,100.00
2022-09-24T03:46:09.361Z,100.00
2022-09-24T03:48:39.145Z,100.00
2022-09-24T03:51:12.353Z,100.00
2022-09-24T03:53:40.860Z,100.00
2022-09-24T03:56:11.889Z,99.89
2022-09-24T03:58:40.489Z,98.78
2022-09-24T04:01:09.962Z,98.16
2022-09-24T04:03:38.376Z,98.36
2022-09-24T04:06:08.993Z,99.29
2022-09-24T04:08:39.747Z,99.73
2022-09-24T04:11:08.976Z,99.30
2022-09-24T04:13:37.342Z,99.52
2022-09-24T04:16:05.767Z,99.67
2022-09-24T04:18:38.938Z,100.00
2022-09-24T04:21:09.359Z,99.71
2022-09-24T04:23:37.661Z,99.77
2022-09-24T04:26:05.388Z,100.00
2022-09-24T04:28:33.766Z,99.95
2022-09-24T04:31:04.696Z,100.00
2022-09-24T04:33:32.869Z,100.00
2022-09-24T04:36:02.317Z,99.90
2022-09-24T04:38:31.697Z,99.06
2022-09-24T04:41:06.273Z,98.40
2022-09-24T04:43:34.560Z,98.26
2022-09-24T04:46:03.893Z,98.54
2022-09-24T04:48:32.682Z,98.57
2022-09-24T04:51:02.462Z,98.42
2022-09-24T04:53:33.501Z,98.48
2022-09-24T04:56:03.244Z,98.93
2022-09-24T04:58:31.858Z,99.10
2022-09-24T05:01:04.920Z,99.46
2022-09-24T05:03:33.323Z,99.82
2022-09-24T05:06:02.041Z,99.17
2022-09-24T05:08:29.947Z,98.70
2022-09-24T05:10:59.206Z,99.56
2022-09-24T05:13:27.953Z,99.56
2022-09-24T05:15:55.928Z,99.82
2022-09-24T05:18:24.450Z,99.18
2022-09-24T05:20:53.038Z,99.14
2022-09-24T05:23:21.589Z,99.16
2022-09-24T05:26:07.813Z,99.25
2022-09-24T05:28:37.752Z,99.41
2022-09-24T05:31:06.810Z,99.28
2022-09-24T05:33:35.075Z,98.58
2022-09-24T05:36:03.666Z,97.90
2022-09-24T05:38:33.080Z,97.76
2022-09-24T05:41:01.230Z,97.67
2022-09-24T05:43:29.465Z,97.28
2022-09-24T05:45:59.293Z,96.53
2022-09-24T05:48:27.163Z,96.16
2022-09-24T05:50:57.297Z,96.09
2022-09-24T05:53:25.790Z,95.57
2022-09-24T05:55:54.412Z,94.77
2022-09-24T05:58:22.357Z,95.61
2022-09-24T06:00:51.115Z,95.63
2022-09-24T06:03:21.014Z,94.87
2022-09-24T06:05:51.840Z,94.21
2022-09-24T06:08:21.494Z,92.74
2022-09-24T06:10:49.789Z,92.95
2022-09-24T06:13:21.958Z,92.25
2022-09-24T06:15:50.486Z,91.57
2022-09-24T06:18:20.869Z,90.75
2022-09-24T06:20:48.695Z,89.17
2022-09-24T06:23:16.457Z,85.36
2022-09-24T06:25:44.335Z,90.09
2022-09-24T06:28:12.161Z,90.29
2022-09-24T06:30:41.179Z,89.36
2022-09-24T06:35:45.289Z,86.78
2022-09-24T06:38:14.800Z,85.79
2022-09-24T06:40:43.855Z,86.22
2022-09-24T06:43:13.814Z,84.68
2022-09-24T06:45:43.879Z,88.63
2022-09-24T06:48:14.462Z,88.20
2022-09-24T06:50:45.589Z,84.10
2022-09-24T06:53:14.436Z,84.31
2022-09-24T06:55:42.924Z,83.03
2022-09-24T06:58:12.814Z,82.40
2022-09-24T07:00:43.108Z,83.54
2022-09-24T07:03:17.919Z,80.59
2022-09-24T07:05:47.613Z,78.75
2022-09-24T07:08:15.736Z,78.50
2022-09-24T07:10:45.488Z,74.97
2022-09-24T07:13:20.462Z,71.16
2022-09-24T07:15:50.259Z,67.36
2022-09-24T07:18:18.684Z,61.63
2022-09-24T07:20:52.675Z,59.68
2022-09-24T07:23:21.555Z,59.50
2022-09-24T07:25:50.440Z,68.41
2022-09-24T07:28:20.878Z,78.70
2022-09-24T07:30:57.106Z,84.51
2022-09-24T07:33:25.634Z,84.83
2022-09-24T07:35:54.871Z,83.19
2022-09-24T07:38:23.517Z,86.56
2022-09-24T07:40:51.899Z,84.14
2022-09-24T07:43:21.802Z,79.12
2022-09-24T07:45:49.725Z,71.35
2022-09-24T07:48:17.556Z,69.11
2022-09-24T07:50:45.698Z,67.26
2022-09-24T07:53:16.922Z,65.46
2022-09-24T07:55:45.518Z,63.23
2022-09-24T07:58:15.813Z,60.33
2022-09-24T08:00:44.370Z,59.07
2022-09-24T08:03:12.255Z,56.69
2022-09-24T08:05:45.445Z,56.23
2022-09-24T08:08:15.305Z,56.68
2022-09-24T08:10:43.733Z,56.80
2022-09-24T08:13:12.246Z,55.41
2022-09-24T08:15:40.298Z,54.66
2022-09-24T08:18:10.714Z,53.89
2022-09-24T08:20:39.632Z,54.84
2022-09-24T08:23:10.044Z,53.87
2022-09-24T08:25:40.025Z,53.77
2022-09-24T08:28:10.754Z,52.43
2022-09-24T08:30:40.957Z,52.20
2022-09-24T08:33:09.221Z,52.06
2022-09-24T08:35:40.309Z,52.40
2022-09-24T08:38:08.910Z,52.55
2022-09-24T08:40:44.076Z,54.07
2022-09-24T08:43:24.237Z,60.15
2022-09-24T08:46:16.182Z,60.70
2022-09-24T08:48:51.749Z,59.36
2022-09-24T08:51:24.457Z,61.42
2022-09-24T08:53:58.610Z,60.17
2022-09-24T08:56:35.088Z,58.23
2022-09-24T08:59:12.411Z,57.51
2022-09-24T09:01:48.066Z,55.39
2022-09-24T09:04:29.777Z,55.03
2022-09-24T09:07:09.322Z,56.52
2022-09-24T09:09:46.289Z,56.20
2022-09-24T09:12:23.890Z,57.74
2022-09-24T09:14:57.147Z,60.85
2022-09-24T09:17:39.031Z,63.44
2022-09-24T09:20:18.738Z,62.70
2022-09-24T09:22:49.864Z,60.88
2022-09-24T09:25:24.844Z,59.92
2022-09-24T09:28:00.855Z,57.92
2022-09-24T09:30:34.361Z,57.66
2022-09-24T09:33:10.335Z,61.14
2022-09-24T09:35:47.182Z,61.91
2022-09-24T09:38:23.648Z,58.83
2022-09-24T09:41:00.210Z,55.16
2022-09-24T09:43:30.464Z,57.33
2022-09-24T09:46:11.503Z,59.11
2022-09-24T09:48:45.820Z,56.71
2022-09-24T09:51:27.217Z,52.32
2022-09-24T09:53:57.111Z,44.94
2022-09-24T09:56:27.774Z,39.54
2022-09-24T09:59:08.304Z,37.32
2022-09-24T10:01:40.587Z,34.43
2022-09-24T10:04:29.543Z,31.19
2022-09-24T10:07:07.738Z,30.89
2022-09-24T10:09:36.272Z,33.31
2022-09-24T10:12:22.130Z,34.67
2022-09-24T10:15:01.359Z,37.49
2022-09-24T10:17:32.833Z,37.58
2022-09-24T10:20:02.607Z,39.74
2022-09-24T10:22:32.135Z,40.05
2022-09-24T10:25:02.090Z,46.23
2022-09-24T10:27:35.811Z,47.02
2022-09-24T10:30:32.561Z,44.66
2022-09-24T10:33:02.888Z,43.48
2022-09-24T10:35:34.961Z,45.35
2022-09-24T10:38:05.718Z,46.26
2022-09-24T10:40:42.701Z,44.87
2022-09-24T10:43:19.477Z,43.08
2022-09-24T10:46:13.708Z,44.16
2022-09-24T10:48:46.914Z,43.45
2022-09-24T10:51:28.953Z,43.75
2022-09-24T10:54:34.896Z,46.97
2022-09-24T10:57:14.678Z,42.36
2022-09-24T10:59:55.118Z,39.64
2022-09-24T11:02:59.910Z,37.46
2022-09-24T11:05:32.984Z,33.84
2022-09-24T11:08:16.958Z,34.21
2022-09-24T11:11:02.885Z,35.27
2022-09-24T11:13:40.529Z,31.15
2022-09-24T11:16:26.543Z,29.47
2022-09-24T11:19:01.514Z,25.48
2022-09-24T11:21:59.886Z,25.86
2022-09-24T11:24:48.795Z,25.99
2022-09-24T11:27:43.745Z,24.04
2022-09-24T11:30:14.931Z,24.78
2022-09-24T11:33:01.247Z,25.29
2022-09-24T11:35:48.419Z,27.14
2022-09-24T11:38:19.883Z,32.28
2022-09-24T11:41:10.333Z,34.26
2022-09-24T11:43:54.955Z,32.87
2022-09-24T11:46:39.260Z,34.00
2022-09-24T11:49:32.628Z,34.74
2022-09-24T11:52:07.421Z,34.86
2022-09-24T11:54:41.346Z,34.53
2022-09-24T11:57:16.144Z,31.81
2022-09-24T11:59:50.225Z,32.61
2022-09-24T12:02:24.987Z,30.20
2022-09-24T12:04:59.606Z,29.91
2022-09-24T12:07:35.432Z,29.12
2022-09-24T12:10:08.467Z,29.24
2022-09-24T12:12:42.081Z,30.41
2022-09-24T12:15:18.431Z,30.76
2022-09-24T12:17:52.332Z,29.90
2022-09-24T12:20:24.654Z,31.85
2022-09-24T12:22:59.942Z,31.47
2022-09-24T12:25:30.794Z,30.95
2022-09-24T12:28:00.557Z,34.32
2022-09-24T12:30:57.748Z,34.78
2022-09-24T12:33:30.466Z,32.91
2022-09-24T12:36:07.192Z,29.85
2022-09-24T12:38:40.721Z,25.79
2022-09-24T12:41:33.497Z,23.51
2022-09-24T12:44:08.141Z,25.35
2022-09-24T12:46:42.799Z,27.18
2022-09-24T12:49:25.515Z,27.85
2022-09-24T12:51:55.699Z,28.54
2022-09-24T12:54:30.283Z,30.43
2022-09-24T12:57:10.333Z,30.33
2022-09-24T12:59:49.119Z,30.88
2022-09-24T13:02:21.197Z,31.63
2022-09-24T13:05:04.594Z,32.23
2022-09-24T13:07:35.751Z,32.09
2022-09-24T13:10:24.654Z,32.65
2022-09-24T13:12:54.359Z,33.72
2022-09-24T13:15:31.904Z,31.54
2022-09-24T13:18:07.093Z,30.39
2022-09-24T13:20:39.998Z,30.92
2022-09-24T13:23:32.055Z,32.88
2022-09-24T13:26:04.949Z,35.17
2022-09-24T13:28:38.648Z,34.52
2022-09-24T13:31:15.956Z,36.39
2022-09-24T13:33:47.535Z,36.16
2022-09-24T13:36:19.362Z,34.77
2022-09-24T13:38:57.485Z,35.18
2022-09-24T13:41:43.756Z,33.93
2022-09-24T13:44:19.175Z,35.48
2022-09-24T13:46:48.696Z,36.96
2022-09-24T13:49:19.961Z,38.67
2022-09-24T13:52:07.805Z,37.83
2022-09-24T13:54:46.777Z,37.36
2022-09-24T13:57:23.506Z,38.34
2022-09-24T13:59:51.669Z,38.78
2022-09-24T14:02:28.114Z,39.67
2022-09-24T14:04:58.657Z,40.07
2022-09-24T14:07:28.829Z,39.82
2022-09-24T14:10:08.621Z,39.41
2022-09-24T14:12:38.343Z,40.96
2022-09-24T14:15:15.794Z,41.47
2022-09-24T14:17:44.602Z,41.59
2022-09-24T14:20:15.813Z,41.03
2022-09-24T14:22:47.024Z,40.20
2022-09-24T14:25:18.640Z,39.86
2022-09-24T14:27:52.016Z,40.18
2022-09-24T14:30:22.864Z,42.07
2022-09-24T14:32:54.486Z,44.29
2022-09-24T14:35:30.173Z,44.49
2022-09-24T14:38:06.451Z,44.82
2022-09-24T14:40:43.406Z,45.16
2022-09-24T14:43:22.110Z,45.87
2022-09-24T14:45:52.369Z,46.28
2022-09-24T14:48:29.703Z,46.70
2022-09-24T14:50:58.007Z,46.21
2022-09-24T14:53:29.713Z,46.02
2022-09-24T14:55:58.301Z,45.54
2022-09-24T14:58:36.401Z,44.77
2022-09-24T15:01:08.356Z,44.54
2022-09-24T15:03:41.940Z,44.19
2022-09-24T15:06:20.697Z,43.94
2022-09-24T15:08:59.356Z,43.89
2022-09-24T15:11:30.013Z,44.52
2022-09-24T15:14:12.822Z,44.51
2022-09-24T15:16:41.703Z,45.20
2022-09-24T15:19:19.455Z,44.87
2022-09-24T15:21:49.217Z,43.42
2022-09-24T15:24:17.646Z,44.67
2022-09-24T15:26:47.998Z,45.22
2022-09-24T15:29:24.657Z,46.17
2022-09-24T15:31:53.135Z,46.28
2022-09-24T15:34:21.306Z,46.84
2022-09-24T15:36:49.986Z,46.62
2022-09-24T15:39:19.991Z,47.25
2022-09-24T15:41:47.963Z,47.54
2022-09-24T15:44:23.119Z,47.75
2022-09-24T15:46:52.408Z,47.89
2022-09-24T15:49:22.330Z,48.93
2022-09-24T15:51:53.265Z,50.11
2022-09-24T15:54:21.818Z,50.76
2022-09-24T15:56:52.471Z,50.60
2022-09-24T15:59:23.637Z,50.53
2022-09-24T16:01:55.598Z,50.24
2022-09-24T16:04:24.024Z,50.74
2022-09-24T16:06:53.347Z,51.02
2022-09-24T16:09:21.891Z,50.98
2022-09-24T16:11:50.917Z,50.98
2022-09-24T16:14:19.468Z,51.45
2022-09-24T16:16:48.874Z,51.32
2022-09-24T16:19:16.908Z,52.25
2022-09-24T16:21:45.052Z,52.91
2022-09-24T16:24:13.480Z,52.72
2022-09-24T16:26:41.896Z,52.53
2022-09-24T16:29:12.262Z,53.00
2022-09-24T16:31:41.427Z,54.35
2022-09-24T16:34:12.229Z,59.57
2022-09-24T16:36:40.439Z,61.13
2022-09-24T16:39:08.617Z,61.13
2022-09-24T16:41:38.093Z,61.82
2022-09-24T16:44:06.985Z,61.57
2022-09-24T16:46:35.253Z,61.91
2022-09-24T16:49:03.850Z,61.85
2022-09-24T16:51:33.954Z,61.03
2022-09-24T16:54:02.512Z,60.40
2022-09-24T16:56:30.855Z,60.09
2022-09-24T16:58:59.663Z,59.63
2022-09-24T17:01:28.417Z,60.57
2022-09-24T17:03:59.673Z,61.28
2022-09-24T17:06:30.410Z,60.66
2022-09-24T17:09:18.025Z,60.63
2022-09-24T17:11:48.557Z,60.04
2022-09-24T17:14:19.139Z,60.35
2022-09-24T17:16:47.586Z,61.22
2022-09-24T17:19:16.940Z,62.56
2022-09-24T17:21:47.013Z,63.29
2022-09-24T17:24:21.572Z,64.75
2022-09-24T17:26:51.112Z,66.11
2022-09-24T17:29:22.508Z,66.07
2022-09-24T17:31:51.171Z,65.87
2022-09-24T17:34:19.898Z,66.50
2022-09-24T17:36:48.785Z,67.66
2022-09-24T17:39:19.507Z,68.58
2022-09-24T17:41:47.742Z,68.16
2022-09-24T17:44:18.263Z,68.72
2022-09-24T17:46:46.702Z,69.53
2022-09-24T17:49:15.866Z,70.25
2022-09-24T17:51:44.395Z,72.06
2022-09-24T17:54:14.949Z,73.78
2022-09-24T17:56:45.294Z,73.78
2022-09-24T17:59:15.463Z,73.61
2022-09-24T18:01:45.814Z,74.16
2022-09-24T18:04:16.664Z,75.69
2022-09-24T18:06:47.242Z,76.46
2022-09-24T18:09:17.455Z,76.43
2022-09-24T18:11:49.873Z,77.22
2022-09-24T18:14:20.331Z,77.02
2022-09-24T18:16:49.477Z,76.17
2022-09-24T18:19:18.685Z,80.84
2022-09-24T18:21:48.648Z,82.89
2022-09-24T18:24:18.277Z,81.90
2022-09-24T18:26:51.573Z,79.94
2022-09-24T18:29:21.564Z,79.73
2022-09-24T18:31:51.809Z,90.99
2022-09-24T18:34:20.394Z,100.00
2022-09-24T18:36:48.831Z,100.00
2022-09-24T18:39:23.902Z,100.00
2022-09-24T18:41:55.008Z,100.00
2022-09-24T18:44:23.360Z,100.00
2022-09-24T18:46:51.703Z,100.00
2022-09-24T18:49:20.651Z,100.00
2022-09-24T18:51:49.243Z,100.00
2022-09-24T18:54:18.490Z,100.00
2022-09-24T18:56:46.750Z,100.00
2022-09-24T18:59:18.700Z,100.00
2022-09-24T19:01:49.081Z,100.00
2022-09-24T19:04:18.098Z,100.00
2022-09-24T19:06:48.191Z,100.00
2022-09-24T19:09:17.955Z,100.00
2022-09-24T19:11:46.606Z,100.00
2022-09-24T19:14:18.375Z,100.00
2022-09-24T19:16:47.521Z,100.00
2022-09-24T19:19:16.712Z,100.00
2022-09-24T19:21:44.579Z,100.00
2022-09-24T19:24:12.897Z,100.00
2022-09-24T19:26:41.212Z,100.00
2022-09-24T19:29:09.789Z,100.00
2022-09-24T19:31:41.417Z,100.00
2022-09-24T19:34:12.675Z,100.00
2022-09-24T19:36:43.893Z,100.00
2022-09-24T19:39:13.020Z,100.00
2022-09-24T19:41:41.224Z,100.00
2022-09-24T19:44:09.675Z,100.00
2022-09-24T19:46:39.849Z,100.00
2022-09-24T19:49:10.193Z,100.00
2022-09-24T19:51:38.765Z,100.00
2022-09-24T19:54:08.385Z,100.00
2022-09-24T19:56:36.941Z,100.00
2022-09-24T19:59:07.755Z,100.00
2022-09-24T20:01:35.901Z,100.00
2022-09-24T20:04:08.162Z,100.00
2022-09-24T20:06:38.667Z,100.00
2022-09-24T20:09:07.248Z,100.00
2022-09-24T20:11:35.236Z,100.00
2022-09-24T20:14:03.229Z,100.00
2022-09-24T20:16:32.586Z,100.00
2022-09-24T20:19:02.291Z,100.00
2022-09-24T20:21:35.387Z,100.00
2022-09-24T20:24:04.822Z,100.00
2022-09-24T20:26:51.091Z,100.00
2022-09-24T20:29:21.599Z,100.00
2022-09-24T20:31:52.467Z,100.00
2022-09-24T20:34:21.938Z,100.00
2022-09-24T20:36:51.618Z,100.00
2022-09-24T20:39:20.005Z,100.00
2022-09-24T20:41:49.429Z,100.00
2022-09-24T20:44:17.435Z,100.00
2022-09-24T20:46:45.137Z,100.00
2022-09-24T20:49:22.971Z,100.00
2022-09-24T20:51:56.945Z,100.00
2022-09-24T20:54:27.257Z,100.00
2022-09-24T20:56:56.237Z,100.00
2022-09-24T20:59:25.942Z,100.00
2022-09-24T21:01:54.301Z,100.00
2022-09-24T21:04:22.607Z,100.00
2022-09-24T21:06:52.705Z,100.00
2022-09-24T21:09:20.801Z,100.00
2022-09-24T21:11:50.083Z,100.00
2022-09-24T21:14:18.819Z,100.00
2022-09-24T21:16:47.314Z,100.00
2022-09-24T21:19:16.245Z,100.00
2022-09-24T21:21:43.981Z,100.00
2022-09-24T21:24:16.023Z,100.00
2022-09-24T21:26:45.059Z,100.00
2022-09-24T21:29:16.618Z,100.00
2022-09-24T21:31:46.492Z,100.00
2022-09-24T21:34:17.060Z,100.00
2022-09-24T21:36:46.746Z,100.00
2022-09-24T21:39:18.750Z,100.00
2022-09-24T21:41:50.372Z,100.00
2022-09-24T21:44:19.479Z,100.00
2022-09-24T21:46:47.727Z,100.00
2022-09-24T21:49:17.170Z,100.00
2022-09-24T21:51:46.134Z,100.00
2022-09-24T21:54:17.460Z,100.00
2022-09-24T21:56:46.637Z,100.00
2022-09-24T21:59:32.607Z,100.00
2022-09-24T22:02:00.650Z,100.00
2022-09-24T22:04:29.619Z,100.00
2022-09-24T22:06:57.571Z,100.00
2022-09-24T22:09:27.383Z,100.00
2022-09-24T22:11:55.741Z,100.00
2022-09-24T22:14:23.678Z,100.00
2022-09-24T22:16:51.511Z,100.00
2022-09-24T22:19:19.506Z,100.00
2022-09-24T22:21:47.223Z,100.00
2022-09-24T22:24:16.207Z,100.00
2022-09-24T22:26:46.089Z,100.00
2022-09-24T22:29:13.948Z,100.00
2022-09-24T22:31:41.720Z,100.00
2022-09-24T22:34:28.078Z,100.00
2022-09-24T22:36:55.703Z,100.00
2022-09-24T22:39:23.560Z,100.00
2022-09-24T22:41:52.642Z,100.00
2022-09-24T22:44:20.492Z,100.00
2022-09-24T22:46:48.196Z,100.00
2022-09-24T22:49:16.081Z,100.00
2022-09-24T22:51:44.514Z,100.00
2022-09-24T22:54:13.983Z,100.00
2022-09-24T22:56:41.802Z,100.00
2022-09-24T22:59:10.929Z,100.00
2022-09-24T23:01:42.612Z,100.00
2022-09-24T23:04:13.251Z,100.00
2022-09-24T23:06:41.378Z,100.00
2022-09-24T23:09:10.072Z,100.00
2022-09-24T23:11:38.009Z,100.00
2022-09-24T23:14:07.587Z,100.00
2022-09-24T23:16:38.522Z,100.00
2022-09-24T23:19:08.389Z,100.00
2022-09-24T23:21:37.291Z,100.00
2022-09-24T23:24:09.171Z,100.00
2022-09-24T23:26:37.238Z,100.00
2022-09-24T23:29:04.905Z,100.00
2022-09-24T23:31:35.653Z,100.00
2022-09-24T23:34:06.963Z,100.00
2022-09-24T23:36:35.878Z,100.00
2022-09-24T23:39:05.239Z,100.00
2022-09-24T23:41:32.967Z,100.00
2022-09-24T23:44:01.063Z,100.00
2022-09-24T23:46:29.171Z,100.00
2022-09-24T23:48:57.617Z,100.00
2022-09-24T23:51:26.822Z,100.00
2022-09-24T23:53:55.215Z,100.00
2022-09-24T23:56:23.065Z,100.00
2022-09-24T23:58:50.965Z,100.00
